sensor_id;sensor_type;location;lat;lon;timestamp;P1;durP1;ratioP1;P2;durP2;ratioP2
20468;SDS011;10393;52.460;13.322;2022-08-04T00:00:26;8.65;;;5.50;;
20468;SDS011;10393;52.460;13.322;2022-08-04T00:02:12;8.10;;;5.75;;
20468;SDS011;10393;52.460;13.322;2022-08-04T00:07:47;9.00;;;5.32;;
20468;SDS011;10393;52.460;13.322;2022-08-04T00:09:49;8.38;;;4.22;;
20468;SDS011;10393;52.460;13.322;2022-08-04T00:11:33;5.47;;;4.35;;
20468;SDS011;10393;52.460;13.322;2022-08-04T00:13:15;8.38;;;4.70;;
20468;SDS011;10393;52.460;13.322;2022-08-04T00:14:57;6.35;;;4.47;;
20468;SDS011;10393;52.460;13.322;2022-08-04T00:16:39;7.03;;;5.35;;
20468;SDS011;10393;52.460;13.322;2022-08-04T00:18:22;6.72;;;4.28;;
20468;SDS011;10393;52.460;13.322;2022-08-04T00:20:07;6.57;;;3.95;;
20468;SDS011;10393;52.460;13.322;2022-08-04T00:21:50;9.95;;;4.43;;
20468;SDS011;10393;52.460;13.322;2022-08-04T00:23:35;6.18;;;5.18;;
20468;SDS011;10393;52.460;13.322;2022-08-04T00:25:17;7.60;;;4.45;;
20468;SDS011;10393;52.460;13.322;2022-08-04T00:26:58;4.53;;;4.13;;
20468;SDS011;10393;52.460;13.322;2022-08-04T00:28:39;7.53;;;4.97;;
20468;SDS011;10393;52.460;13.322;2022-08-04T00:30:21;10.63;;;4.07;;
20468;SDS011;10393;52.460;13.322;2022-08-04T00:32:02;6.68;;;4.60;;
20468;SDS011;10393;52.460;13.322;2022-08-04T00:33:44;10.90;;;5.75;;
20468;SDS011;10393;52.460;13.322;2022-08-04T00:35:25;4.55;;;4.15;;
20468;SDS011;10393;52.460;13.322;2022-08-04T00:37:07;8.27;;;4.88;;
20468;SDS011;10393;52.460;13.322;2022-08-04T00:38:48;4.55;;;4.10;;
20468;SDS011;10393;52.460;13.322;2022-08-04T00:40:31;6.30;;;4.38;;
20468;SDS011;10393;52.460;13.322;2022-08-04T00:56:11;8.60;;;4.60;;
20468;SDS011;10393;52.460;13.322;2022-08-04T01:00:14;7.32;;;4.43;;
20468;SDS011;10393;52.460;13.322;2022-08-04T01:01:59;10.15;;;4.10;;
20468;SDS011;10393;52.460;13.322;2022-08-04T01:10:08;6.57;;;4.50;;
20468;SDS011;10393;52.460;13.322;2022-08-04T01:14:28;8.52;;;3.97;;
20468;SDS011;10393;52.460;13.322;2022-08-04T01:16:04;5.47;;;4.22;;
20468;SDS011;10393;52.460;13.322;2022-08-04T01:18:07;6.20;;;4.72;;
20468;SDS011;10393;52.460;13.322;2022-08-04T01:25:47;9.32;;;4.80;;
20468;SDS011;10393;52.460;13.322;2022-08-04T01:27:39;6.80;;;4.65;;
20468;SDS011;10393;52.460;13.322;2022-08-04T01:29:49;6.78;;;4.72;;
20468;SDS011;10393;52.460;13.322;2022-08-04T01:33:38;6.15;;;4.47;;
20468;SDS011;10393;52.460;13.322;2022-08-04T01:35:26;6.93;;;4.70;;
20468;SDS011;10393;52.460;13.322;2022-08-04T01:39:33;7.05;;;4.22;;
20468;SDS011;10393;52.460;13.322;2022-08-04T01:41:21;7.85;;;4.15;;
20468;SDS011;10393;52.460;13.322;2022-08-04T01:43:03;11.05;;;4.20;;
20468;SDS011;10393;52.460;13.322;2022-08-04T01:44:43;9.73;;;4.55;;
20468;SDS011;10393;52.460;13.322;2022-08-04T01:46:27;11.98;;;5.75;;
20468;SDS011;10393;52.460;13.322;2022-08-04T01:48:13;8.18;;;4.97;;
20468;SDS011;10393;52.460;13.322;2022-08-04T01:49:54;9.75;;;5.20;;
20468;SDS011;10393;52.460;13.322;2022-08-04T01:51:40;5.82;;;4.38;;
20468;SDS011;10393;52.460;13.322;2022-08-04T01:53:22;6.63;;;4.10;;
20468;SDS011;10393;52.460;13.322;2022-08-04T01:55:11;6.38;;;4.18;;
20468;SDS011;10393;52.460;13.322;2022-08-04T01:56:54;8.02;;;4.55;;
20468;SDS011;10393;52.460;13.322;2022-08-04T01:58:36;4.22;;;3.70;;
20468;SDS011;10393;52.460;13.322;2022-08-04T02:00:18;5.88;;;4.32;;
20468;SDS011;10393;52.460;13.322;2022-08-04T02:02:01;5.82;;;4.53;;
20468;SDS011;10393;52.460;13.322;2022-08-04T02:03:43;7.15;;;5.05;;
20468;SDS011;10393;52.460;13.322;2022-08-04T02:05:25;8.98;;;3.75;;
20468;SDS011;10393;52.460;13.322;2022-08-04T02:07:12;5.70;;;3.55;;
20468;SDS011;10393;52.460;13.322;2022-08-04T02:16:54;5.10;;;4.13;;
20468;SDS011;10393;52.460;13.322;2022-08-04T02:20:45;17.45;;;5.10;;
20468;SDS011;10393;52.460;13.322;2022-08-04T02:22:26;8.10;;;3.65;;
20468;SDS011;10393;52.460;13.322;2022-08-04T02:24:14;9.50;;;4.40;;
20468;SDS011;10393;52.460;13.322;2022-08-04T02:25:56;5.05;;;3.60;;
20468;SDS011;10393;52.460;13.322;2022-08-04T02:33:03;10.45;;;4.28;;
20468;SDS011;10393;52.460;13.322;2022-08-04T02:34:47;7.80;;;3.78;;
20468;SDS011;10393;52.460;13.322;2022-08-04T02:36:38;6.07;;;4.30;;
20468;SDS011;10393;52.460;13.322;2022-08-04T02:38:23;4.50;;;3.88;;
20468;SDS011;10393;52.460;13.322;2022-08-04T02:40:07;7.80;;;4.22;;
20468;SDS011;10393;52.460;13.322;2022-08-04T02:41:49;8.05;;;4.47;;
20468;SDS011;10393;52.460;13.322;2022-08-04T02:43:30;5.05;;;4.30;;
20468;SDS011;10393;52.460;13.322;2022-08-04T02:45:11;6.30;;;4.07;;
20468;SDS011;10393;52.460;13.322;2022-08-04T02:46:52;5.13;;;3.70;;
20468;SDS011;10393;52.460;13.322;2022-08-04T02:48:33;8.43;;;3.97;;
20468;SDS011;10393;52.460;13.322;2022-08-04T02:50:17;5.18;;;3.92;;
20468;SDS011;10393;52.460;13.322;2022-08-04T02:51:58;5.60;;;3.90;;
20468;SDS011;10393;52.460;13.322;2022-08-04T02:53:40;5.60;;;3.97;;
20468;SDS011;10393;52.460;13.322;2022-08-04T02:55:21;5.47;;;3.95;;
20468;SDS011;10393;52.460;13.322;2022-08-04T02:57:03;6.47;;;4.25;;
20468;SDS011;10393;52.460;13.322;2022-08-04T02:58:50;8.45;;;5.63;;
20468;SDS011;10393;52.460;13.322;2022-08-04T03:00:33;6.13;;;3.92;;
20468;SDS011;10393;52.460;13.322;2022-08-04T03:02:15;4.25;;;3.85;;
20468;SDS011;10393;52.460;13.322;2022-08-04T03:08:53;4.72;;;3.90;;
20468;SDS011;10393;52.460;13.322;2022-08-04T03:10:35;4.78;;;4.15;;
20468;SDS011;10393;52.460;13.322;2022-08-04T03:16:38;4.70;;;3.45;;
20468;SDS011;10393;52.460;13.322;2022-08-04T03:26:51;8.63;;;3.47;;
20468;SDS011;10393;52.460;13.322;2022-08-04T03:33:19;5.75;;;4.15;;
20468;SDS011;10393;52.460;13.322;2022-08-04T03:41:45;4.13;;;3.33;;
20468;SDS011;10393;52.460;13.322;2022-08-04T03:43:55;6.38;;;4.25;;
20468;SDS011;10393;52.460;13.322;2022-08-04T03:54:53;5.57;;;4.68;;
20468;SDS011;10393;52.460;13.322;2022-08-04T04:00:06;4.78;;;4.25;;
20468;SDS011;10393;52.460;13.322;2022-08-04T04:08:11;9.75;;;4.38;;
20468;SDS011;10393;52.460;13.322;2022-08-04T04:12:13;4.47;;;3.85;;
20468;SDS011;10393;52.460;13.322;2022-08-04T04:14:11;6.28;;;4.70;;
20468;SDS011;10393;52.460;13.322;2022-08-04T04:16:09;4.55;;;4.15;;
20468;SDS011;10393;52.460;13.322;2022-08-04T04:20:03;6.18;;;4.07;;
20468;SDS011;10393;52.460;13.322;2022-08-04T04:29:40;11.18;;;4.90;;
20468;SDS011;10393;52.460;13.322;2022-08-04T04:39:37;13.90;;;8.15;;
20468;SDS011;10393;52.460;13.322;2022-08-04T04:47:17;6.82;;;5.38;;
20468;SDS011;10393;52.460;13.322;2022-08-04T04:49:07;9.57;;;5.22;;
20468;SDS011;10393;52.460;13.322;2022-08-04T04:51:06;6.38;;;5.25;;
20468;SDS011;10393;52.460;13.322;2022-08-04T04:53:02;6.90;;;5.95;;
20468;SDS011;10393;52.460;13.322;2022-08-04T04:55:18;7.55;;;5.30;;
20468;SDS011;10393;52.460;13.322;2022-08-04T04:57:08;6.35;;;5.07;;
20468;SDS011;10393;52.460;13.322;2022-08-04T04:58:51;9.18;;;6.63;;
20468;SDS011;10393;52.460;13.322;2022-08-04T05:00:42;6.43;;;5.72;;
20468;SDS011;10393;52.460;13.322;2022-08-04T05:02:58;10.23;;;5.72;;
20468;SDS011;10393;52.460;13.322;2022-08-04T05:09:09;8.63;;;5.80;;
20468;SDS011;10393;52.460;13.322;2022-08-04T05:14:53;5.35;;;4.70;;
20468;SDS011;10393;52.460;13.322;2022-08-04T05:16:38;6.90;;;6.20;;
20468;SDS011;10393;52.460;13.322;2022-08-04T05:18:21;9.20;;;6.20;;
20468;SDS011;10393;52.460;13.322;2022-08-04T05:22:12;7.43;;;5.72;;
20468;SDS011;10393;52.460;13.322;2022-08-04T05:24:09;6.18;;;5.63;;
20468;SDS011;10393;52.460;13.322;2022-08-04T05:25:52;9.05;;;6.07;;
20468;SDS011;10393;52.460;13.322;2022-08-04T05:27:40;11.60;;;7.10;;
20468;SDS011;10393;52.460;13.322;2022-08-04T05:29:30;6.45;;;5.82;;
20468;SDS011;10393;52.460;13.322;2022-08-04T05:31:24;7.05;;;5.70;;
20468;SDS011;10393;52.460;13.322;2022-08-04T05:33:08;6.38;;;5.78;;
20468;SDS011;10393;52.460;13.322;2022-08-04T05:35:02;9.10;;;5.82;;
20468;SDS011;10393;52.460;13.322;2022-08-04T05:36:46;6.22;;;5.28;;
20468;SDS011;10393;52.460;13.322;2022-08-04T05:38:33;10.18;;;5.50;;
20468;SDS011;10393;52.460;13.322;2022-08-04T05:40:16;5.88;;;5.25;;
20468;SDS011;10393;52.460;13.322;2022-08-04T05:41:58;7.57;;;5.50;;
20468;SDS011;10393;52.460;13.322;2022-08-04T05:43:42;6.68;;;4.80;;
20468;SDS011;10393;52.460;13.322;2022-08-04T05:45:23;5.68;;;5.18;;
20468;SDS011;10393;52.460;13.322;2022-08-04T05:47:05;7.78;;;5.38;;
20468;SDS011;10393;52.460;13.322;2022-08-04T05:48:47;8.60;;;6.18;;
20468;SDS011;10393;52.460;13.322;2022-08-04T05:50:29;7.32;;;5.85;;
20468;SDS011;10393;52.460;13.322;2022-08-04T05:52:10;5.95;;;5.45;;
20468;SDS011;10393;52.460;13.322;2022-08-04T05:53:51;8.20;;;5.15;;
20468;SDS011;10393;52.460;13.322;2022-08-04T05:55:34;5.65;;;4.53;;
20468;SDS011;10393;52.460;13.322;2022-08-04T05:57:15;10.77;;;5.20;;
20468;SDS011;10393;52.460;13.322;2022-08-04T05:58:56;6.60;;;5.28;;
20468;SDS011;10393;52.460;13.322;2022-08-04T06:00:37;6.00;;;5.47;;
20468;SDS011;10393;52.460;13.322;2022-08-04T06:02:21;5.72;;;5.22;;
20468;SDS011;10393;52.460;13.322;2022-08-04T06:04:02;7.90;;;5.47;;
20468;SDS011;10393;52.460;13.322;2022-08-04T06:05:44;5.95;;;5.18;;
20468;SDS011;10393;52.460;13.322;2022-08-04T06:07:25;8.80;;;5.30;;
20468;SDS011;10393;52.460;13.322;2022-08-04T06:09:06;6.50;;;5.45;;
20468;SDS011;10393;52.460;13.322;2022-08-04T06:10:47;5.32;;;4.93;;
20468;SDS011;10393;52.460;13.322;2022-08-04T06:12:35;7.63;;;5.47;;
20468;SDS011;10393;52.460;13.322;2022-08-04T06:14:17;7.07;;;5.63;;
20468;SDS011;10393;52.460;13.322;2022-08-04T06:16:00;11.40;;;5.45;;
20468;SDS011;10393;52.460;13.322;2022-08-04T06:17:44;9.10;;;5.70;;
20468;SDS011;10393;52.460;13.322;2022-08-04T06:19:32;8.57;;;6.10;;
20468;SDS011;10393;52.460;13.322;2022-08-04T06:21:14;15.52;;;12.13;;
20468;SDS011;10393;52.460;13.322;2022-08-04T06:22:58;6.18;;;5.57;;
20468;SDS011;10393;52.460;13.322;2022-08-04T06:24:43;21.48;;;13.60;;
20468;SDS011;10393;52.460;13.322;2022-08-04T06:26:27;13.35;;;11.05;;
20468;SDS011;10393;52.460;13.322;2022-08-04T06:28:09;9.55;;;6.05;;
20468;SDS011;10393;52.460;13.322;2022-08-04T06:29:51;4.85;;;4.45;;
20468;SDS011;10393;52.460;13.322;2022-08-04T06:31:33;7.10;;;4.75;;
20468;SDS011;10393;52.460;13.322;2022-08-04T06:33:36;5.60;;;5.18;;
20468;SDS011;10393;52.460;13.322;2022-08-04T06:35:17;5.00;;;4.60;;
20468;SDS011;10393;52.460;13.322;2022-08-04T06:36:59;5.40;;;4.90;;
20468;SDS011;10393;52.460;13.322;2022-08-04T06:38:39;6.40;;;4.63;;
20468;SDS011;10393;52.460;13.322;2022-08-04T06:40:22;4.90;;;4.60;;
20468;SDS011;10393;52.460;13.322;2022-08-04T06:42:04;4.10;;;3.90;;
20468;SDS011;10393;52.460;13.322;2022-08-04T06:43:45;5.13;;;4.05;;
20468;SDS011;10393;52.460;13.322;2022-08-04T06:45:26;4.70;;;3.10;;
20468;SDS011;10393;52.460;13.322;2022-08-04T06:47:07;3.85;;;3.55;;
20468;SDS011;10393;52.460;13.322;2022-08-04T06:48:49;4.63;;;3.35;;
20468;SDS011;10393;52.460;13.322;2022-08-04T06:50:31;3.85;;;3.53;;
20468;SDS011;10393;52.460;13.322;2022-08-04T06:52:15;3.50;;;3.20;;
20468;SDS011;10393;52.460;13.322;2022-08-04T06:53:57;7.13;;;3.78;;
20468;SDS011;10393;52.460;13.322;2022-08-04T06:55:42;6.57;;;3.60;;
20468;SDS011;10393;52.460;13.322;2022-08-04T06:57:27;4.68;;;3.80;;
20468;SDS011;10393;52.460;13.322;2022-08-04T06:59:10;3.42;;;3.17;;
20468;SDS011;10393;52.460;13.322;2022-08-04T07:00:51;8.50;;;3.67;;
20468;SDS011;10393;52.460;13.322;2022-08-04T07:02:38;4.18;;;3.75;;
20468;SDS011;10393;52.460;13.322;2022-08-04T07:04:19;3.85;;;3.45;;
20468;SDS011;10393;52.460;13.322;2022-08-04T07:06:00;3.53;;;3.22;;
20468;SDS011;10393;52.460;13.322;2022-08-04T07:07:42;3.90;;;3.40;;
20468;SDS011;10393;52.460;13.322;2022-08-04T07:09:24;14.13;;;5.40;;
20468;SDS011;10393;52.460;13.322;2022-08-04T07:11:05;4.63;;;3.85;;
20468;SDS011;10393;52.460;13.322;2022-08-04T07:12:46;3.45;;;3.33;;
20468;SDS011;10393;52.460;13.322;2022-08-04T07:14:28;4.57;;;4.28;;
20468;SDS011;10393;52.460;13.322;2022-08-04T07:16:12;4.60;;;4.30;;
20468;SDS011;10393;52.460;13.322;2022-08-04T07:17:54;4.22;;;4.00;;
20468;SDS011;10393;52.460;13.322;2022-08-04T07:19:39;4.65;;;4.35;;
20468;SDS011;10393;52.460;13.322;2022-08-04T07:21:20;5.18;;;4.15;;
20468;SDS011;10393;52.460;13.322;2022-08-04T07:23:02;5.07;;;4.57;;
20468;SDS011;10393;52.460;13.322;2022-08-04T07:24:44;5.60;;;5.40;;
20468;SDS011;10393;52.460;13.322;2022-08-04T07:26:26;5.78;;;5.40;;
20468;SDS011;10393;52.460;13.322;2022-08-04T07:28:07;6.63;;;6.03;;
20468;SDS011;10393;52.460;13.322;2022-08-04T07:29:48;5.93;;;5.47;;
20468;SDS011;10393;52.460;13.322;2022-08-04T07:31:30;6.82;;;6.53;;
20468;SDS011;10393;52.460;13.322;2022-08-04T07:33:11;6.43;;;5.90;;
20468;SDS011;10393;52.460;13.322;2022-08-04T07:34:53;7.30;;;6.72;;
20468;SDS011;10393;52.460;13.322;2022-08-04T07:36:35;7.93;;;7.63;;
20468;SDS011;10393;52.460;13.322;2022-08-04T07:38:15;8.48;;;8.15;;
20468;SDS011;10393;52.460;13.322;2022-08-04T07:39:56;7.90;;;7.50;;
20468;SDS011;10393;52.460;13.322;2022-08-04T07:41:37;8.85;;;8.35;;
20468;SDS011;10393;52.460;13.322;2022-08-04T07:43:18;8.50;;;8.20;;
20468;SDS011;10393;52.460;13.322;2022-08-04T07:44:59;9.40;;;9.20;;
20468;SDS011;10393;52.460;13.322;2022-08-04T07:46:40;10.00;;;9.40;;
20468;SDS011;10393;52.460;13.322;2022-08-04T07:48:22;10.80;;;10.23;;
20468;SDS011;10393;52.460;13.322;2022-08-04T07:50:03;10.48;;;10.10;;
20468;SDS011;10393;52.460;13.322;2022-08-04T07:51:45;26.23;;;24.55;;
20468;SDS011;10393;52.460;13.322;2022-08-04T07:53:25;44.15;;;40.75;;
20468;SDS011;10393;52.460;13.322;2022-08-04T07:55:06;40.20;;;37.15;;
20468;SDS011;10393;52.460;13.322;2022-08-04T07:56:47;24.02;;;22.65;;
20468;SDS011;10393;52.460;13.322;2022-08-04T07:58:30;14.88;;;14.32;;
20468;SDS011;10393;52.460;13.322;2022-08-04T08:00:11;15.18;;;14.52;;
20468;SDS011;10393;52.460;13.322;2022-08-04T08:01:54;16.30;;;15.43;;
20468;SDS011;10393;52.460;13.322;2022-08-04T08:03:38;17.92;;;17.33;;
20468;SDS011;10393;52.460;13.322;2022-08-04T08:05:20;19.05;;;18.25;;
20468;SDS011;10393;52.460;13.322;2022-08-04T08:07:01;19.90;;;19.00;;
20468;SDS011;10393;52.460;13.322;2022-08-04T08:08:42;22.50;;;21.38;;
20468;SDS011;10393;52.460;13.322;2022-08-04T08:10:23;22.50;;;21.52;;
20468;SDS011;10393;52.460;13.322;2022-08-04T08:12:05;22.52;;;21.58;;
20468;SDS011;10393;52.460;13.322;2022-08-04T08:13:47;22.33;;;21.23;;
20468;SDS011;10393;52.460;13.322;2022-08-04T08:15:28;21.08;;;19.77;;
20468;SDS011;10393;52.460;13.322;2022-08-04T08:17:10;19.38;;;18.77;;
20468;SDS011;10393;52.460;13.322;2022-08-04T08:18:51;17.35;;;16.50;;
20468;SDS011;10393;52.460;13.322;2022-08-04T08:20:32;15.77;;;15.27;;
20468;SDS011;10393;52.460;13.322;2022-08-04T08:22:13;13.50;;;13.00;;
20468;SDS011;10393;52.460;13.322;2022-08-04T08:23:53;12.50;;;11.65;;
20468;SDS011;10393;52.460;13.322;2022-08-04T08:25:35;11.02;;;10.30;;
20468;SDS011;10393;52.460;13.322;2022-08-04T08:27:17;10.50;;;10.00;;
20468;SDS011;10393;52.460;13.322;2022-08-04T08:28:58;6.70;;;6.40;;
20468;SDS011;10393;52.460;13.322;2022-08-04T08:30:39;4.65;;;3.60;;
20468;SDS011;10393;52.460;13.322;2022-08-04T08:32:19;3.88;;;3.10;;
20468;SDS011;10393;52.460;13.322;2022-08-04T08:34:00;3.97;;;3.45;;
20468;SDS011;10393;52.460;13.322;2022-08-04T08:37:32;3.42;;;3.22;;
20468;SDS011;10393;52.460;13.322;2022-08-04T08:48:59;3.15;;;3.00;;
20468;SDS011;10393;52.460;13.322;2022-08-04T08:52:54;4.03;;;3.58;;
20468;SDS011;10393;52.460;13.322;2022-08-04T09:00:32;4.78;;;2.95;;
20468;SDS011;10393;52.460;13.322;2022-08-04T09:07:05;3.40;;;3.10;;
20468;SDS011;10393;52.460;13.322;2022-08-04T09:10:12;3.97;;;3.55;;
20468;SDS011;10393;52.460;13.322;2022-08-04T09:13:49;3.40;;;3.20;;
20468;SDS011;10393;52.460;13.322;2022-08-04T09:15:33;5.53;;;3.33;;
20468;SDS011;10393;52.460;13.322;2022-08-04T09:17:58;8.00;;;5.72;;
20468;SDS011;10393;52.460;13.322;2022-08-04T09:21:09;4.63;;;3.78;;
20468;SDS011;10393;52.460;13.322;2022-08-04T09:23:35;5.03;;;4.55;;
20468;SDS011;10393;52.460;13.322;2022-08-04T09:24:59;3.63;;;2.90;;
20468;SDS011;10393;52.460;13.322;2022-08-04T09:26:57;3.65;;;3.33;;
20468;SDS011;10393;52.460;13.322;2022-08-04T09:28:42;2.70;;;2.55;;
20468;SDS011;10393;52.460;13.322;2022-08-04T09:30:28;4.65;;;3.40;;
20468;SDS011;10393;52.460;13.322;2022-08-04T09:32:31;3.90;;;3.60;;
20468;SDS011;10393;52.460;13.322;2022-08-04T09:34:19;8.27;;;4.57;;
20468;SDS011;10393;52.460;13.322;2022-08-04T09:36:19;4.40;;;4.00;;
20468;SDS011;10393;52.460;13.322;2022-08-04T09:42:05;4.97;;;3.55;;
20468;SDS011;10393;52.460;13.322;2022-08-04T09:44:07;4.00;;;3.60;;
20468;SDS011;10393;52.460;13.322;2022-08-04T09:46:10;3.85;;;3.38;;
20468;SDS011;10393;52.460;13.322;2022-08-04T09:47:57;3.67;;;3.47;;
20468;SDS011;10393;52.460;13.322;2022-08-04T09:49:42;3.28;;;3.08;;
20468;SDS011;10393;52.460;13.322;2022-08-04T09:53:20;5.25;;;3.20;;
20468;SDS011;10393;52.460;13.322;2022-08-04T10:00:30;2.67;;;2.47;;
20468;SDS011;10393;52.460;13.322;2022-08-04T10:02:14;7.22;;;3.47;;
20468;SDS011;10393;52.460;13.322;2022-08-04T10:03:59;3.08;;;2.88;;
20468;SDS011;10393;52.460;13.322;2022-08-04T10:11:13;2.70;;;2.50;;
20468;SDS011;10393;52.460;13.322;2022-08-04T10:14:46;8.13;;;3.00;;
20468;SDS011;10393;52.460;13.322;2022-08-04T10:24:06;6.68;;;2.40;;
20468;SDS011;10393;52.460;13.322;2022-08-04T10:27:45;2.35;;;2.13;;
20468;SDS011;10393;52.460;13.322;2022-08-04T10:29:27;2.47;;;2.38;;
20468;SDS011;10393;52.460;13.322;2022-08-04T10:31:12;3.40;;;2.30;;
20468;SDS011;10393;52.460;13.322;2022-08-04T10:33:30;2.60;;;2.47;;
20468;SDS011;10393;52.460;13.322;2022-08-04T10:35:10;2.50;;;2.40;;
20468;SDS011;10393;52.460;13.322;2022-08-04T10:40:42;2.88;;;2.67;;
20468;SDS011;10393;52.460;13.322;2022-08-04T10:42:26;3.38;;;3.17;;
20468;SDS011;10393;52.460;13.322;2022-08-04T10:48:19;3.10;;;2.90;;
20468;SDS011;10393;52.460;13.322;2022-08-04T10:50:00;5.55;;;3.90;;
20468;SDS011;10393;52.460;13.322;2022-08-04T10:51:47;3.45;;;3.20;;
20468;SDS011;10393;52.460;13.322;2022-08-04T10:53:30;4.03;;;2.90;;
20468;SDS011;10393;52.460;13.322;2022-08-04T10:55:13;3.88;;;3.30;;
20468;SDS011;10393;52.460;13.322;2022-08-04T10:56:58;3.25;;;2.92;;
20468;SDS011;10393;52.460;13.322;2022-08-04T10:58:41;4.18;;;3.83;;
20468;SDS011;10393;52.460;13.322;2022-08-04T11:00:25;3.25;;;2.85;;
20468;SDS011;10393;52.460;13.322;2022-08-04T11:02:19;5.97;;;3.00;;
20468;SDS011;10393;52.460;13.322;2022-08-04T11:04:14;2.95;;;2.75;;
20468;SDS011;10393;52.460;13.322;2022-08-04T11:05:57;5.97;;;3.42;;
20468;SDS011;10393;52.460;13.322;2022-08-04T11:07:43;4.25;;;3.17;;
20468;SDS011;10393;52.460;13.322;2022-08-04T11:09:25;3.15;;;2.90;;
20468;SDS011;10393;52.460;13.322;2022-08-04T11:13:03;6.70;;;3.15;;
20468;SDS011;10393;52.460;13.322;2022-08-04T11:14:48;3.30;;;3.10;;
20468;SDS011;10393;52.460;13.322;2022-08-04T11:16:46;3.90;;;3.08;;
20468;SDS011;10393;52.460;13.322;2022-08-04T11:18:54;3.58;;;2.78;;
20468;SDS011;10393;52.460;13.322;2022-08-04T11:20:42;3.22;;;2.17;;
20468;SDS011;10393;52.460;13.322;2022-08-04T11:22:26;4.20;;;2.65;;
20468;SDS011;10393;52.460;13.322;2022-08-04T11:24:15;2.50;;;2.40;;
20468;SDS011;10393;52.460;13.322;2022-08-04T11:26:08;3.25;;;2.42;;
20468;SDS011;10393;52.460;13.322;2022-08-04T11:27:54;4.05;;;2.72;;
20468;SDS011;10393;52.460;13.322;2022-08-04T11:29:50;5.35;;;3.08;;
20468;SDS011;10393;52.460;13.322;2022-08-04T11:31:39;4.38;;;3.05;;
20468;SDS011;10393;52.460;13.322;2022-08-04T11:33:26;5.55;;;2.40;;
20468;SDS011;10393;52.460;13.322;2022-08-04T11:35:15;3.70;;;2.47;;
20468;SDS011;10393;52.460;13.322;2022-08-04T11:36:58;2.88;;;2.67;;
20468;SDS011;10393;52.460;13.322;2022-08-04T11:38:45;2.50;;;2.40;;
20468;SDS011;10393;52.460;13.322;2022-08-04T11:40:35;2.72;;;2.60;;
20468;SDS011;10393;52.460;13.322;2022-08-04T11:42:26;4.20;;;2.35;;
20468;SDS011;10393;52.460;13.322;2022-08-04T11:44:10;5.65;;;3.15;;
20468;SDS011;10393;52.460;13.322;2022-08-04T11:46:00;2.70;;;2.60;;
20468;SDS011;10393;52.460;13.322;2022-08-04T11:47:56;4.43;;;2.45;;
20468;SDS011;10393;52.460;13.322;2022-08-04T11:49:40;3.15;;;2.15;;
20468;SDS011;10393;52.460;13.322;2022-08-04T11:51:25;2.33;;;2.22;;
20468;SDS011;10393;52.460;13.322;2022-08-04T11:53:08;2.38;;;2.22;;
20468;SDS011;10393;52.460;13.322;2022-08-04T11:54:51;2.00;;;1.90;;
20468;SDS011;10393;52.460;13.322;2022-08-04T11:56:32;3.28;;;2.25;;
20468;SDS011;10393;52.460;13.322;2022-08-04T11:58:14;2.28;;;2.17;;
20468;SDS011;10393;52.460;13.322;2022-08-04T11:59:56;17.85;;;10.13;;
20468;SDS011;10393;52.460;13.322;2022-08-04T12:05:37;2.60;;;2.50;;
20468;SDS011;10393;52.460;13.322;2022-08-04T12:11:53;2.13;;;2.03;;
20468;SDS011;10393;52.460;13.322;2022-08-04T12:15:36;2.22;;;2.13;;
20468;SDS011;10393;52.460;13.322;2022-08-04T12:17:28;3.15;;;2.10;;
20468;SDS011;10393;52.460;13.322;2022-08-04T12:19:16;2.10;;;2.00;;
20468;SDS011;10393;52.460;13.322;2022-08-04T12:20:59;2.42;;;2.30;;
20468;SDS011;10393;52.460;13.322;2022-08-04T12:22:43;4.68;;;2.20;;
20468;SDS011;10393;52.460;13.322;2022-08-04T12:24:48;3.33;;;2.10;;
20468;SDS011;10393;52.460;13.322;2022-08-04T12:26:28;2.60;;;2.50;;
20468;SDS011;10393;52.460;13.322;2022-08-04T12:28:23;2.50;;;2.40;;
20468;SDS011;10393;52.460;13.322;2022-08-04T12:30:07;2.80;;;2.60;;
20468;SDS011;10393;52.460;13.322;2022-08-04T12:31:52;10.02;;;1.98;;
20468;SDS011;10393;52.460;13.322;2022-08-04T12:33:52;1.92;;;1.80;;
20468;SDS011;10393;52.460;13.322;2022-08-04T12:35:38;1.88;;;1.77;;
20468;SDS011;10393;52.460;13.322;2022-08-04T12:40:55;1.85;;;1.75;;
20468;SDS011;10393;52.460;13.322;2022-08-04T12:42:44;2.67;;;2.33;;
20468;SDS011;10393;52.460;13.322;2022-08-04T12:44:34;2.10;;;2.00;;
20468;SDS011;10393;52.460;13.322;2022-08-04T12:48:01;2.50;;;2.00;;
20468;SDS011;10393;52.460;13.322;2022-08-04T12:49:46;2.10;;;1.95;;
20468;SDS011;10393;52.460;13.322;2022-08-04T12:51:28;1.48;;;1.40;;
20468;SDS011;10393;52.460;13.322;2022-08-04T12:53:16;28.02;;;19.92;;
20468;SDS011;10393;52.460;13.322;2022-08-04T12:54:58;48.92;;;31.30;;
20468;SDS011;10393;52.460;13.322;2022-08-04T12:56:39;2.58;;;2.38;;
20468;SDS011;10393;52.460;13.322;2022-08-04T12:58:22;2.05;;;1.95;;
20468;SDS011;10393;52.460;13.322;2022-08-04T13:00:04;3.80;;;1.67;;
20468;SDS011;10393;52.460;13.322;2022-08-04T13:01:46;2.42;;;1.90;;
20468;SDS011;10393;52.460;13.322;2022-08-04T13:03:29;1.83;;;1.73;;
20468;SDS011;10393;52.460;13.322;2022-08-04T13:05:16;1.75;;;1.65;;
20468;SDS011;10393;52.460;13.322;2022-08-04T13:07:02;3.65;;;2.85;;
20468;SDS011;10393;52.460;13.322;2022-08-04T13:08:47;4.93;;;2.25;;
20468;SDS011;10393;52.460;13.322;2022-08-04T13:10:29;2.28;;;2.05;;
20468;SDS011;10393;52.460;13.322;2022-08-04T13:12:15;2.72;;;1.80;;
20468;SDS011;10393;52.460;13.322;2022-08-04T13:13:57;2.58;;;1.10;;
20468;SDS011;10393;52.460;13.322;2022-08-04T13:15:39;2.55;;;1.48;;
20468;SDS011;10393;52.460;13.322;2022-08-04T13:17:20;1.98;;;1.60;;
20468;SDS011;10393;52.460;13.322;2022-08-04T13:19:04;1.80;;;1.60;;
20468;SDS011;10393;52.460;13.322;2022-08-04T13:20:46;1.85;;;1.60;;
20468;SDS011;10393;52.460;13.322;2022-08-04T13:22:27;1.95;;;1.60;;
20468;SDS011;10393;52.460;13.322;2022-08-04T13:24:10;4.88;;;1.60;;
20468;SDS011;10393;52.460;13.322;2022-08-04T13:25:56;9.40;;;1.55;;
20468;SDS011;10393;52.460;13.322;2022-08-04T13:27:37;1.90;;;1.40;;
20468;SDS011;10393;52.460;13.322;2022-08-04T13:29:19;1.60;;;1.50;;
20468;SDS011;10393;52.460;13.322;2022-08-04T13:31:04;3.03;;;1.90;;
20468;SDS011;10393;52.460;13.322;2022-08-04T13:32:46;2.97;;;2.05;;
20468;SDS011;10393;52.460;13.322;2022-08-04T13:34:28;3.22;;;1.50;;
20468;SDS011;10393;52.460;13.322;2022-08-04T13:36:12;2.22;;;2.08;;
20468;SDS011;10393;52.460;13.322;2022-08-04T13:37:54;4.10;;;1.83;;
20468;SDS011;10393;52.460;13.322;2022-08-04T13:39:36;1.95;;;1.85;;
20468;SDS011;10393;52.460;13.322;2022-08-04T13:41:18;1.60;;;1.50;;
20468;SDS011;10393;52.460;13.322;2022-08-04T13:43:00;2.22;;;1.70;;
20468;SDS011;10393;52.460;13.322;2022-08-04T13:44:42;2.53;;;1.52;;
20468;SDS011;10393;52.460;13.322;2022-08-04T13:46:26;1.15;;;1.15;;
20468;SDS011;10393;52.460;13.322;2022-08-04T13:48:08;1.75;;;1.63;;
20468;SDS011;10393;52.460;13.322;2022-08-04T13:51:54;2.35;;;1.50;;
20468;SDS011;10393;52.460;13.322;2022-08-04T13:53:36;1.50;;;1.40;;
20468;SDS011;10393;52.460;13.322;2022-08-04T13:56:59;1.65;;;1.55;;
20468;SDS011;10393;52.460;13.322;2022-08-04T13:58:43;3.15;;;1.55;;
20468;SDS011;10393;52.460;13.322;2022-08-04T14:00:26;2.08;;;1.40;;
20468;SDS011;10393;52.460;13.322;2022-08-04T14:02:59;1.42;;;1.33;;
20468;SDS011;10393;52.460;13.322;2022-08-04T14:04:21;1.33;;;1.33;;
20468;SDS011;10393;52.460;13.322;2022-08-04T14:06:04;1.27;;;1.23;;
20468;SDS011;10393;52.460;13.322;2022-08-04T14:07:54;4.95;;;1.42;;